Time;durP1;ratioP1;P1;durP2;ratioP2;P2;SDS_P1;SDS_P2;PMS_P1;PMS_P2;Temp;Humidity;BMP_temperature;BMP_pressure;BME280_temperature;BME280_humidity;BME280_pressure;Samples;Min_cycle;Max_cycle;Signal;HPM_P1;HPM_P2
2021/06/10 00:00:26;;;;;;;0.50;0.50;;;;;;;15.65;77.92;97386.06;29394;209;64009;-63
2021/06/10 00:00:57;;;;;;;0.50;0.50;;;;;;;15.64;78.13;97384.44;29395;227;63004;-63
2021/06/10 00:01:29;;;;;;;0.50;0.50;;;;;;;15.63;77.88;97385.56;29395;223;63004;-62
2021/06/10 00:02:00;;;;;;;0.50;0.50;;;;;;;15.62;78.07;97389.41;29395;221;63008;-62
2021/06/10 00:02:31;;;;;;;0.50;0.50;;;;;;;15.61;78.06;97383.12;29395;204;63004;-62
2021/06/10 00:03:04;;;;;;;0.50;0.50;;;;;;;15.61;78.44;97383.12;29395;204;63005;-62
2021/06/10 00:03:35;;;;;;;0.50;0.50;;;;;;;15.61;78.07;97383.12;29395;273;63005;-62
2021/06/10 00:04:07;;;;;;;0.50;0.50;;;;;;;15.62;78.25;97383.94;29395;255;63009;-62
2021/06/10 00:04:41;;;;;;;0.50;0.50;;;;;;;15.61;78.05;97382.31;29394;205;64009;-63
2021/06/10 00:05:14;;;;;;;0.50;0.50;;;;;;;15.60;78.15;97380.72;29395;275;63009;-62
2021/06/10 00:05:45;;;;;;;0.40;0.40;;;;;;;15.59;78.10;97385.41;29395;204;63005;-61
2021/06/10 00:06:17;;;;;;;0.50;0.50;;;;;;;15.59;78.34;97381.84;29395;214;63024;-61
2021/06/10 00:06:48;;;;;;;0.50;0.50;;;;;;;15.60;78.16;97386.19;29395;299;63004;-62
2021/06/10 00:07:19;;;;;;;0.50;0.50;;;;;;;15.60;78.26;97383.44;29395;235;63009;-62
2021/06/10 00:07:53;;;;;;;0.50;0.50;;;;;;;15.61;78.08;97379.59;29395;215;63004;-63
2021/06/10 00:08:24;;;;;;;0.50;0.50;;;;;;;15.60;77.78;97380.72;29395;250;63004;-62
2021/06/10 00:08:55;;;;;;;0.50;0.50;;;;;;;15.59;77.78;97379.13;29395;223;63007;-62
2021/06/10 00:09:26;;;;;;;0.50;0.50;;;;;;;15.58;78.21;97382.97;29395;215;63008;-63
2021/06/10 00:09:57;;;;;;;0.50;0.50;;;;;;;15.56;78.39;97377.81;29394;229;64009;-63
2021/06/10 00:10:31;;;;;;;0.50;0.50;;;;;;;15.56;78.46;97379.72;29395;199;63009;-63
2021/06/10 00:11:02;;;;;;;0.50;0.50;;;;;;;15.57;78.13;97375.88;29395;218;63005;-63
2021/06/10 00:11:33;;;;;;;0.50;0.50;;;;;;;15.56;78.68;97374.25;29395;229;63009;-64
2021/06/10 00:12:06;;;;;;;0.50;0.50;;;;;;;15.56;78.30;97374.25;29395;214;63004;-62
2021/06/10 00:12:38;;;;;;;0.50;0.50;;;;;;;15.57;78.47;97378.63;29394;238;64009;-68
2021/06/10 00:13:10;;;;;;;0.50;0.50;;;;;;;15.57;78.56;97378.63;29395;347;63005;-63
2021/06/10 00:13:41;;;;;;;0.50;0.50;;;;;;;15.57;78.47;97370.41;29394;226;64013;-63
2021/06/10 00:14:14;;;;;;;0.50;0.50;;;;;;;15.57;78.30;97370.41;29395;202;63004;-63
2021/06/10 00:14:47;;;;;;;0.50;0.50;;;;;;;15.58;78.13;97377.50;29395;211;63009;-62
2021/06/10 00:15:23;;;;;;;0.50;0.50;;;;;;;15.59;78.03;97377.19;29394;212;64009;-63
2021/06/10 00:15:54;;;;;;;0.50;0.50;;;;;;;15.60;77.68;97372.50;29394;197;64013;-63
2021/06/10 00:16:25;;;;;;;0.50;0.50;;;;;;;15.60;77.74;97377.97;29395;208;63004;-63
2021/06/10 00:16:56;;;;;;;0.50;0.50;;;;;;;15.60;77.84;97380.72;29395;250;63008;-63
2021/06/10 00:17:28;;;;;;;0.50;0.50;;;;;;;15.59;77.61;97370.91;29395;221;63005;-62
2021/06/10 00:18:02;;;;;;;0.50;0.50;;;;;;;15.59;77.96;97379.94;29395;262;63009;-62
2021/06/10 00:18:34;;;;;;;0.50;0.50;;;;;;;15.59;78.00;97381.84;29395;215;63005;-62
2021/06/10 00:19:05;;;;;;;0.50;0.50;;;;;;;15.59;78.14;97379.13;29395;228;63009;-63
2021/06/10 00:19:37;;;;;;;0.50;0.50;;;;;;;15.58;78.11;97378.31;29395;394;63005;-62
2021/06/10 00:20:10;;;;;;;0.50;0.50;;;;;;;15.59;78.27;97379.13;29395;236;63009;-63
2021/06/10 00:20:42;;;;;;;0.50;0.50;;;;;;;15.59;78.17;97379.94;29394;222;64009;-62
2021/06/10 00:21:13;;;;;;;0.50;0.50;;;;;;;15.60;78.00;97377.97;29395;196;63009;-62
2021/06/10 00:21:45;;;;;;;0.50;0.50;;;;;;;15.60;77.63;97383.44;29395;218;63004;-61
2021/06/10 00:22:16;;;;;;;0.50;0.50;;;;;;;15.59;77.56;97382.66;29395;288;63009;-63
2021/06/10 00:22:48;;;;;;;0.50;0.50;;;;;;;15.60;77.53;97377.97;29395;315;63004;-63
2021/06/10 00:23:19;;;;;;;0.50;0.50;;;;;;;15.59;77.76;97379.94;29395;204;63009;-62
2021/06/10 00:23:50;;;;;;;0.50;0.50;;;;;;;15.59;77.46;97384.59;29395;234;63004;-62
2021/06/10 00:24:22;;;;;;;0.50;0.50;;;;;;;15.59;77.68;97385.41;29395;209;63008;-62
2021/06/10 00:24:53;;;;;;;0.50;0.50;;;;;;;15.58;77.61;97380.25;29394;220;64009;-62
2021/06/10 00:25:27;;;;;;;0.50;0.50;;;;;;;15.58;77.60;97382.97;29395;216;63009;-62
2021/06/10 00:25:58;;;;;;;0.50;0.50;;;;;;;15.58;77.13;97382.97;29395;198;63005;-62
2021/06/10 00:26:31;;;;;;;0.50;0.50;;;;;;;15.60;77.09;97377.97;29394;291;64013;-62
2021/06/10 00:27:03;;;;;;;0.50;0.50;;;;;;;15.59;76.93;97377.19;29395;231;63005;-61
2021/06/10 00:27:36;;;;;;;0.50;0.50;;;;;;;15.59;76.89;97379.13;29395;223;63009;-62
2021/06/10 00:28:08;;;;;;;0.50;0.50;;;;;;;15.61;76.75;97376.84;29395;257;63005;-61
2021/06/10 00:28:42;;;;;;;0.50;0.50;;;;;;;15.62;76.54;97383.94;29394;247;64013;-67
2021/06/10 00:29:13;;;;;;;0.50;0.50;;;;;;;15.63;76.60;97380.88;29395;242;63010;-62
2021/06/10 00:29:44;;;;;;;0.47;0.47;;;;;;;15.62;76.62;97378.47;29395;202;63009;-63
2021/06/10 00:30:17;;;;;;;0.50;0.50;;;;;;;15.62;76.59;97379.28;29395;232;63004;-63
2021/06/10 00:30:48;;;;;;;0.40;0.40;;;;;;;15.62;76.91;97373.00;29395;387;63028;-62
2021/06/10 00:31:20;;;;;;;0.50;0.50;;;;;;;15.62;76.30;97381.19;29394;203;64009;-63
2021/06/10 00:31:51;;;;;;;0.50;0.50;;;;;;;15.61;76.87;97371.37;29396;202;63008;-62
2021/06/10 00:32:22;;;;;;;0.50;0.50;;;;;;;15.62;76.85;97381.19;29395;209;63005;-61
2021/06/10 00:32:53;;;;;;;0.50;0.50;;;;;;;15.60;76.78;97378.78;29395;233;63009;-63
2021/06/10 00:33:25;;;;;;;0.50;0.50;;;;;;;15.60;76.86;97380.72;29395;200;63010;-63
2021/06/10 00:33:56;;;;;;;0.50;0.50;;;;;;;15.60;77.15;97383.44;29395;227;63009;-63
2021/06/10 00:34:27;;;;;;;0.50;0.50;;;;;;;15.59;77.20;97384.59;29395;225;63005;-62
2021/06/10 00:34:59;;;;;;;0.50;0.50;;;;;;;15.59;77.29;97381.84;29395;240;63009;-63
2021/06/10 00:35:31;;;;;;;0.50;0.50;;;;;;;15.58;77.37;97382.97;29395;273;63005;-62
2021/06/10 00:36:02;;;;;;;0.50;0.50;;;;;;;15.59;77.23;97387.31;29394;238;64013;-62
2021/06/10 00:36:33;;;;;;;0.50;0.50;;;;;;;15.58;77.68;97382.97;29394;238;64009;-68
2021/06/10 00:37:05;;;;;;;0.50;0.50;;;;;;;15.58;77.81;97380.25;29395;235;63009;-63
2021/06/10 00:37:36;;;;;;;0.50;0.50;;;;;;;15.54;77.69;97376.47;29395;224;63004;-63
2021/06/10 00:38:07;;;;;;;0.50;0.50;;;;;;;15.57;77.65;97375.88;29395;202;63009;-62
2021/06/10 00:38:38;;;;;;;0.50;0.50;;;;;;;15.53;77.56;97380.34;29395;211;63004;-61
2021/06/10 00:39:09;;;;;;;0.40;0.40;;;;;;;15.56;77.62;97379.72;29395;215;63008;-62
2021/06/10 00:39:41;;;;;;;0.50;0.50;;;;;;;15.54;77.17;97371.81;29395;230;63004;-62
2021/06/10 00:40:14;;;;;;;0.50;0.50;;;;;;;15.56;77.12;97385.19;29395;236;63009;-63
2021/06/10 00:40:45;;;;;;;0.50;0.50;;;;;;;15.56;77.17;97379.72;29395;221;63005;-63
2021/06/10 00:41:17;;;;;;;0.50;0.50;;;;;;;15.57;77.08;97389.56;29394;199;64014;-62
2021/06/10 00:41:48;;;;;;;0.50;0.50;;;;;;;15.57;77.00;97382.16;29395;342;63005;-63
2021/06/10 00:42:21;;;;;;;0.50;0.50;;;;;;;15.53;77.14;97377.59;29394;198;64013;-63
2021/06/10 00:42:53;;;;;;;0.50;0.50;;;;;;;15.55;77.07;97383.56;29395;218;63010;-63
2021/06/10 00:43:24;;;;;;;0.50;0.50;;;;;;;15.56;76.91;97382.44;29395;211;63009;-62
2021/06/10 00:43:55;;;;;;;0.50;0.50;;;;;;;15.54;76.96;97381.94;29395;235;63005;-63
2021/06/10 00:44:27;;;;;;;0.50;0.50;;;;;;;15.53;77.39;97383.88;29395;209;63016;-63
2021/06/10 00:44:58;;;;;;;0.50;0.50;;;;;;;15.53;77.00;97383.06;29395;210;63004;-63
2021/06/10 00:45:30;;;;;;;0.50;0.50;;;;;;;15.52;77.32;97374.06;29395;220;63009;-62
2021/06/10 00:46:03;;;;;;;0.50;0.50;;;;;;;15.53;77.42;97383.88;29395;250;63004;-63
2021/06/10 00:46:35;;;;;;;0.50;0.50;;;;;;;15.52;77.52;97376.00;29395;234;63008;-63
2021/06/10 00:47:07;;;;;;;0.50;0.50;;;;;;;15.52;77.23;97382.25;29394;206;64008;-63
2021/06/10 00:47:38;;;;;;;0.50;0.50;;;;;;;15.52;77.41;97384.19;29395;213;63009;-61
2021/06/10 00:48:10;;;;;;;0.50;0.50;;;;;;;15.51;77.53;97382.56;29395;212;63005;-61
2021/06/10 00:48:41;;;;;;;0.50;0.50;;;;;;;15.51;77.61;97377.09;29395;322;63009;-63
2021/06/10 00:49:12;;;;;;;0.50;0.50;;;;;;;15.51;77.61;97385.31;29395;265;63005;-63
2021/06/10 00:49:43;;;;;;;0.50;0.50;;;;;;;15.50;77.81;97376.28;29395;216;63009;-63
2021/06/10 00:50:25;;;;;;;0.50;0.50;;;;;;;15.50;77.72;97380.97;29395;213;63005;-63
2021/06/10 00:50:57;;;;;;;0.50;0.50;;;;;;;15.48;77.60;97377.72;29395;210;63009;-63
2021/06/10 00:51:28;;;;;;;0.50;0.50;;;;;;;15.49;77.87;97382.06;29394;233;64000;-62
2021/06/10 00:52:00;;;;;;;0.50;0.50;;;;;;;15.46;77.91;97379.97;29394;218;64013;-64
2021/06/10 00:52:31;;;;;;;0.50;0.50;;;;;;;15.46;77.79;97379.97;29395;206;63010;-64
2021/06/10 00:53:03;;;;;;;0.50;0.50;;;;;;;15.44;78.28;97377.53;29395;263;63009;-64
2021/06/10 00:53:35;;;;;;;0.50;0.50;;;;;;;15.43;78.27;97382.19;29395;204;63004;-62
2021/06/10 00:54:07;;;;;;;0.50;0.50;;;;;;;15.43;78.28;97382.19;29395;210;63016;-63
2021/06/10 00:54:39;;;;;;;0.50;0.50;;;;;;;15.42;78.08;97386.06;29395;323;63004;-62
2021/06/10 00:55:11;;;;;;;0.50;0.50;;;;;;;15.42;78.03;97388.78;29395;202;63009;-63
2021/06/10 00:55:42;;;;;;;0.50;0.50;;;;;;;15.41;78.08;97384.44;29395;240;63005;-63
2021/06/10 00:56:13;;;;;;;0.50;0.50;;;;;;;15.41;78.65;97389.91;29395;375;63009;-69
2021/06/10 00:56:46;;;;;;;0.50;0.50;;;;;;;15.40;78.31;97391.03;29395;226;63005;-62
2021/06/10 00:57:20;;;;;;;0.50;0.50;;;;;;;15.37;78.37;97388.91;29394;222;64013;-63
2021/06/10 00:57:51;;;;;;;0.50;0.50;;;;;;;15.37;78.57;97388.91;29395;196;63005;-63
2021/06/10 00:58:23;;;;;;;0.40;0.40;;;;;;;15.37;78.83;97388.91;29395;234;63009;-63
2021/06/10 00:58:54;;;;;;;0.50;0.50;;;;;;;15.37;78.61;97394.37;29395;269;63005;-63
2021/06/10 00:59:26;;;;;;;0.50;0.50;;;;;;;15.37;78.46;97388.09;29394;234;64007;-62
2021/06/10 00:59:57;;;;;;;0.45;0.45;;;;;;;15.36;78.79;97390.03;29395;204;63004;-62
2021/06/10 01:00:28;;;;;;;0.50;0.50;;;;;;;15.35;78.48;97393.87;29394;197;64013;-63
2021/06/10 01:01:01;;;;;;;0.50;0.50;;;;;;;15.35;78.84;97391.16;29394;363;64022;-61
2021/06/10 01:01:33;;;;;;;0.50;0.50;;;;;;;15.34;78.42;97386.81;29394;237;64013;-63
2021/06/10 01:02:04;;;;;;;0.50;0.50;;;;;;;15.35;78.53;97391.16;29394;210;64008;-63
2021/06/10 01:02:36;;;;;;;0.50;0.50;;;;;;;15.35;78.65;97390.34;29395;260;63009;-63
2021/06/10 01:03:08;;;;;;;0.50;0.50;;;;;;;15.36;78.32;97397.44;29395;209;63005;-63
2021/06/10 01:03:39;;;;;;;0.50;0.50;;;;;;;15.36;78.37;97392.75;29395;245;63009;-63
2021/06/10 01:04:10;;;;;;;0.50;0.50;;;;;;;15.36;78.28;97391.97;29395;222;63005;-63
2021/06/10 01:04:42;;;;;;;0.50;0.50;;;;;;;15.35;78.62;97391.16;29394;232;64013;-63
2021/06/10 01:05:13;;;;;;;0.50;0.50;;;;;;;15.34;78.48;97388.72;29395;199;63011;-62
2021/06/10 01:05:49;;;;;;;0.50;0.50;;;;;;;15.35;78.82;97393.06;29395;226;63009;-62
2021/06/10 01:06:59;;;;;;;0.50;0.50;;;;;;;15.34;78.62;97395.00;29395;257;63004;-62
2021/06/10 01:08:15;;;;;;;0.50;0.50;;;;;;;15.31;78.84;97395.63;29394;198;64013;-63
2021/06/10 01:09:07;;;;;;;0.50;0.50;;;;;;;15.31;78.84;97395.63;29394;299;64008;-63
2021/06/10 01:10:05;;;;;;;0.50;0.50;;;;;;;15.32;78.87;97391.78;29417;272;63008;-62
2021/06/10 01:11:10;;;;;;;0.50;0.50;;;;;;;15.31;78.71;97390.16;29395;204;63005;-63
2021/06/10 01:12:23;;;;;;;0.50;0.50;;;;;;;15.31;78.77;97395.63;29395;208;63009;-62
2021/06/10 01:13:17;;;;;;;0.50;0.50;;;;;;;15.31;78.84;97392.06;29394;256;64009;-62
2021/06/10 01:14:17;;;;;;;0.50;0.50;;;;;;;15.31;78.77;97395.63;29395;273;63009;-63
2021/06/10 01:15:11;;;;;;;0.50;0.50;;;;;;;15.30;79.04;97394.00;29395;202;63004;-62
2021/06/10 01:15:45;;;;;;;0.50;0.50;;;;;;;15.30;78.82;97398.66;29395;230;63009;-63
2021/06/10 01:16:21;;;;;;;0.50;0.50;;;;;;;15.30;78.65;97390.47;29395;322;63004;-63
2021/06/10 01:16:54;;;;;;;0.50;0.50;;;;;;;15.29;79.03;97392.38;29395;197;63009;-63
2021/06/10 01:17:27;;;;;;;0.50;0.50;;;;;;;15.26;79.48;97393.00;29394;200;63998;-62
2021/06/10 01:18:00;;;;;;;0.50;0.50;;;;;;;15.25;79.35;97398.78;29395;214;63009;-62
2021/06/10 01:18:33;;;;;;;0.50;0.50;;;;;;;15.23;79.58;97396.38;29395;296;63005;-63
2021/06/10 01:19:18;;;;;;;0.50;0.50;;;;;;;15.22;79.38;97391.22;29395;272;63009;-63
2021/06/10 01:20:11;;;;;;;0.50;0.50;;;;;;;15.21;79.85;97395.88;29394;208;64009;-62
2021/06/10 01:20:43;;;;;;;0.50;0.50;;;;;;;15.21;79.83;97393.16;29395;254;63009;-62
2021/06/10 01:21:17;;;;;;;0.50;0.50;;;;;;;15.20;79.58;97397.00;29395;272;63000;-62
2021/06/10 01:21:51;;;;;;;0.50;0.50;;;;;;;15.20;79.80;97393.47;29395;208;63009;-63
2021/06/10 01:23:14;;;;;;;0.50;0.50;;;;;;;15.19;79.88;97392.66;29395;208;63004;-63
2021/06/10 01:24:13;;;;;;;0.50;0.50;;;;;;;15.17;79.66;97400.34;29478;221;126013;-62
2021/06/10 01:24:49;;;;;;;0.50;0.50;;;;;;;15.17;79.92;97386.69;29394;207;64005;-63
2021/06/10 01:26:10;;;;;;;0.50;0.50;;;;;;;15.18;79.62;97393.78;29395;281;63009;-62
2021/06/10 01:27:33;;;;;;;0.50;0.50;;;;;;;15.18;79.75;97391.03;29395;283;63005;-63
2021/06/10 01:28:14;;;;;;;0.50;0.50;;;;;;;15.18;79.26;97388.31;29416;206;64009;-62
2021/06/10 01:28:46;;;;;;;0.50;0.50;;;;;;;15.17;79.35;97394.87;29417;196;63004;-63
2021/06/10 01:29:20;;;;;;;0.50;0.50;;;;;;;15.16;79.36;97387.00;29395;305;63019;-61
2021/06/10 01:29:58;;;;;;;0.50;0.50;;;;;;;15.16;79.39;97387.81;29395;207;63004;-62
2021/06/10 01:30:35;;;;;;;0.50;0.50;;;;;;;15.16;79.50;97390.53;29395;332;63025;-63
2021/06/10 01:31:09;;;;;;;0.50;0.50;;;;;;;15.15;79.40;97386.19;29394;290;64004;-63
2021/06/10 01:31:41;;;;;;;0.50;0.50;;;;;;;15.14;79.46;97390.03;29395;275;63008;-70
2021/06/10 01:32:18;;;;;;;0.50;0.50;;;;;;;15.14;79.42;97390.03;29395;220;63005;-63
2021/06/10 01:33:02;;;;;;;0.50;0.50;;;;;;;15.15;79.45;97379.91;29395;238;63015;-63
2021/06/10 01:33:39;;;;;;;0.50;0.50;;;;;;;15.14;79.44;97384.56;29394;249;64005;-61
2021/06/10 01:34:12;;;;;;;0.50;0.50;;;;;;;15.15;79.58;97386.19;29395;204;63015;-63
2021/06/10 01:34:44;;;;;;;0.50;0.50;;;;;;;15.16;79.26;97387.81;29394;226;64005;-63
2021/06/10 01:35:18;;;;;;;0.50;0.50;;;;;;;15.15;79.54;97386.19;29395;233;63009;-62
2021/06/10 01:35:56;;;;;;;0.50;0.50;;;;;;;15.15;79.09;97385.38;29395;202;63005;-62
2021/06/10 01:36:33;;;;;;;0.50;0.50;;;;;;;15.15;79.30;97388.13;29394;242;64009;-62
2021/06/10 01:37:05;;;;;;;0.50;0.50;;;;;;;15.15;79.13;97386.19;29395;328;63004;-61
2021/06/10 01:37:37;;;;;;;0.50;0.50;;;;;;;15.15;79.49;97391.66;29395;287;63009;-62
2021/06/10 01:38:10;;;;;;;0.50;0.50;;;;;;;15.15;79.08;97388.94;29395;213;63004;-63
2021/06/10 01:38:45;;;;;;;0.50;0.50;;;;;;;15.15;79.33;97391.66;29394;213;64008;-62
2021/06/10 01:39:20;;;;;;;0.50;0.50;;;;;;;15.14;79.31;97392.78;29395;212;63004;-63
2021/06/10 01:39:53;;;;;;;0.50;0.50;;;;;;;15.13;79.58;97388.44;29395;284;63015;-62
2021/06/10 01:40:25;;;;;;;0.50;0.50;;;;;;;15.13;79.87;97387.63;29394;215;64005;-63
2021/06/10 01:40:58;;;;;;;0.50;0.50;;;;;;;15.13;79.77;97388.44;29395;225;63009;-62
2021/06/10 01:41:31;;;;;;;0.50;0.50;;;;;;;15.13;79.77;97388.44;29395;212;63014;-62
2021/06/10 01:42:02;;;;;;;0.50;0.50;;;;;;;15.15;79.87;97385.38;29395;207;63009;-61
2021/06/10 01:42:38;;;;;;;0.45;0.45;;;;;;;15.15;79.72;97386.19;29395;197;63009;-63
2021/06/10 01:43:12;;;;;;;0.50;0.50;;;;;;;15.16;80.02;97396.00;29395;239;63009;-61
2021/06/10 01:43:47;;;;;;;0.50;0.50;;;;;;;15.15;79.46;97386.19;29395;202;63004;-63
2021/06/10 01:44:20;;;;;;;0.50;0.50;;;;;;;15.15;79.83;97386.19;29395;213;63009;-63
2021/06/10 01:44:52;;;;;;;0.50;0.50;;;;;;;15.15;79.85;97380.72;29394;282;64004;-63
2021/06/10 01:45:25;;;;;;;0.50;0.50;;;;;;;15.14;79.77;97379.09;29395;199;63020;-62
2021/06/10 01:45:58;;;;;;;0.50;0.50;;;;;;;15.14;79.61;97387.31;29395;234;63004;-63
2021/06/10 01:46:31;;;;;;;0.50;0.50;;;;;;;15.12;79.70;97386.81;29395;223;63008;-62
2021/06/10 01:47:04;;;;;;;0.50;0.50;;;;;;;15.13;79.60;97384.88;29395;364;63005;-63
2021/06/10 01:47:38;;;;;;;0.50;0.50;;;;;;;15.12;79.59;97378.59;29394;227;64009;-63
2021/06/10 01:48:12;;;;;;;0.50;0.50;;;;;;;15.11;79.80;97379.72;29395;202;63005;-62
2021/06/10 01:48:46;;;;;;;0.50;0.50;;;;;;;15.09;79.87;97381.97;29395;249;63009;-63
2021/06/10 01:49:20;;;;;;;0.50;0.50;;;;;;;15.11;79.77;97378.91;29395;207;63005;-61
2021/06/10 01:49:53;;;;;;;0.50;0.50;;;;;;;15.09;80.11;97387.44;29395;203;63009;-62
2021/06/10 01:50:25;;;;;;;0.43;0.43;;;;;;;15.08;79.88;97377.63;29395;278;63005;-63
2021/06/10 01:50:59;;;;;;;0.50;0.50;;;;;;;15.08;79.74;97374.88;29395;209;63009;-62
2021/06/10 01:51:32;;;;;;;0.50;0.50;;;;;;;15.07;79.90;97373.25;29395;340;63004;-63
2021/06/10 01:52:06;;;;;;;0.50;0.50;;;;;;;15.08;79.96;97374.88;29395;215;63009;-63
2021/06/10 01:52:40;;;;;;;0.50;0.50;;;;;;;15.07;80.35;97373.25;29394;228;64004;-63
2021/06/10 01:53:14;;;;;;;0.50;0.50;;;;;;;15.07;80.24;97373.25;29395;238;63009;-62
2021/06/10 01:53:48;;;;;;;0.50;0.50;;;;;;;15.06;79.94;97371.66;29395;225;63004;-62
2021/06/10 01:54:21;;;;;;;0.50;0.50;;;;;;;15.07;80.45;97373.25;29395;285;63008;-63
2021/06/10 01:54:54;;;;;;;0.50;0.50;;;;;;;15.07;80.29;97370.53;29395;197;63005;-62
2021/06/10 01:55:30;;;;;;;0.50;0.50;;;;;;;15.08;80.36;97370.22;29395;267;63009;-67
2021/06/10 01:56:02;;;;;;;0.50;0.50;;;;;;;15.08;80.14;97370.22;29395;202;63005;-61
2021/06/10 01:56:35;;;;;;;0.50;0.50;;;;;;;15.10;80.26;97367.19;29395;202;63009;-62
2021/06/10 01:57:08;;;;;;;0.50;0.50;;;;;;;15.09;80.19;97366.38;29395;200;63005;-61
2021/06/10 01:57:41;;;;;;;0.50;0.50;;;;;;;15.10;80.11;97361.72;29394;197;64009;-62
2021/06/10 01:58:13;;;;;;;0.50;0.50;;;;;;;15.11;80.02;97368.78;29395;258;63005;-62
2021/06/10 01:58:46;;;;;;;0.50;0.50;;;;;;;15.11;80.22;97362.53;29395;232;63009;-62
2021/06/10 01:59:21;;;;;;;0.50;0.50;;;;;;;15.11;80.16;97374.25;29395;198;63004;-63
2021/06/10 01:59:55;;;;;;;0.50;0.50;;;;;;;15.10;80.34;97356.25;29395;214;63011;-61
2021/06/10 02:00:27;;;;;;;0.50;0.50;;;;;;;15.10;79.89;97367.19;29395;279;63004;-62
2021/06/10 02:01:01;;;;;;;0.50;0.50;;;;;;;15.09;80.31;97360.91;29395;203;63004;-62
2021/06/10 02:01:33;;;;;;;0.50;0.50;;;;;;;15.09;80.05;97362.81;29395;197;63004;-62
2021/06/10 02:02:06;;;;;;;0.50;0.50;;;;;;;15.08;79.97;97363.94;29394;227;64009;-62
2021/06/10 02:02:38;;;;;;;0.50;0.50;;;;;;;15.08;80.14;97369.41;29395;215;63005;-62
2021/06/10 02:03:10;;;;;;;0.50;0.50;;;;;;;15.08;80.05;97363.94;29394;199;64009;-63
2021/06/10 02:03:43;;;;;;;0.50;0.50;;;;;;;15.06;79.97;97360.72;29395;222;63005;-61
2021/06/10 02:04:15;;;;;;;0.50;0.50;;;;;;;15.05;80.07;97359.09;29395;220;63009;-61
2021/06/10 02:04:48;;;;;;;0.50;0.50;;;;;;;15.04;80.13;97361.03;29395;203;63005;-62
2021/06/10 02:05:22;;;;;;;0.50;0.50;;;;;;;15.04;80.45;97360.22;29395;294;63009;-62
2021/06/10 02:05:53;;;;;;;0.50;0.50;;;;;;;15.04;80.24;97362.94;29395;231;63005;-62
2021/06/10 02:06:26;;;;;;;0.50;0.50;;;;;;;15.03;80.43;97361.34;29395;230;63009;-63
2021/06/10 02:06:59;;;;;;;0.50;0.50;;;;;;;15.02;80.14;97357.78;29394;229;64004;-62
2021/06/10 02:07:31;;;;;;;0.50;0.50;;;;;;;15.01;80.46;97358.09;29395;197;63009;-62
2021/06/10 02:08:03;;;;;;;0.50;0.50;;;;;;;15.00;80.31;97361.94;29395;220;63004;-63
2021/06/10 02:08:35;;;;;;;0.50;0.50;;;;;;;15.00;80.08;97356.47;29395;202;63009;-71
2021/06/10 02:09:07;;;;;;;0.50;0.50;;;;;;;14.99;80.50;97360.34;29395;331;63004;-62
2021/06/10 02:09:42;;;;;;;0.50;0.50;;;;;;;14.98;80.58;97359.53;29395;206;63018;-63
2021/06/10 02:10:18;;;;;;;0.50;0.50;;;;;;;14.97;80.20;97357.09;29395;219;63005;-62
2021/06/10 02:10:53;;;;;;;0.50;0.50;;;;;;;14.97;80.47;97357.09;29395;216;63009;-62
2021/06/10 02:11:25;;;;;;;0.50;0.50;;;;;;;14.94;80.18;97361.25;29394;224;64005;-61
2021/06/10 02:11:57;;;;;;;0.50;0.50;;;;;;;14.93;80.52;97358.84;29395;199;63009;-60
2021/06/10 02:12:29;;;;;;;0.50;0.50;;;;;;;14.90;80.48;97356.75;29395;203;63005;-63
2021/06/10 02:13:00;;;;;;;0.50;0.50;;;;;;;14.88;80.94;97356.25;29395;366;63009;-63
2021/06/10 02:13:33;;;;;;;0.50;0.50;;;;;;;14.86;80.66;97361.22;29395;227;63004;-62
2021/06/10 02:14:05;;;;;;;0.50;0.50;;;;;;;14.85;81.21;97357.66;29395;236;63009;-63
2021/06/10 02:14:40;;;;;;;0.50;0.50;;;;;;;14.84;81.11;97347.03;29395;340;63004;-62
2021/06/10 02:15:13;;;;;;;0.50;0.50;;;;;;;14.82;80.95;97350.09;29394;208;64009;-64
2021/06/10 02:15:45;;;;;;;0.50;0.50;;;;;;;14.82;81.16;97354.75;29395;325;63011;-63
2021/06/10 02:16:18;;;;;;;0.50;0.50;;;;;;;14.82;81.37;97354.75;29395;220;63008;-69
2021/06/10 02:16:51;;;;;;;0.50;0.50;;;;;;;14.81;81.12;97353.12;29395;198;63004;-63
2021/06/10 02:17:22;;;;;;;0.50;0.50;;;;;;;14.81;81.46;97356.66;29395;202;63009;-62
2021/06/10 02:17:54;;;;;;;0.50;0.50;;;;;;;14.81;81.10;97358.59;29395;249;63005;-63
2021/06/10 02:18:26;;;;;;;0.50;0.50;;;;;;;14.82;81.57;97357.47;29395;214;63009;-63
2021/06/10 02:18:57;;;;;;;0.50;0.50;;;;;;;14.81;80.99;97355.84;29395;217;63005;-62
2021/06/10 02:19:30;;;;;;;0.50;0.50;;;;;;;14.81;81.21;97355.84;29395;214;63009;-63
2021/06/10 02:20:02;;;;;;;0.50;0.50;;;;;;;14.82;81.15;97349.28;29395;222;63005;-63
2021/06/10 02:20:33;;;;;;;0.50;0.50;;;;;;;14.80;81.09;97356.97;29394;265;64009;-62
2021/06/10 02:21:07;;;;;;;0.50;0.50;;;;;;;14.81;81.33;97350.41;29394;230;64004;-63
2021/06/10 02:21:39;;;;;;;0.50;0.50;;;;;;;14.79;81.25;97352.62;29395;202;63009;-63
2021/06/10 02:22:10;;;;;;;0.50;0.50;;;;;;;14.79;81.18;97350.69;29395;208;63004;-63
2021/06/10 02:22:41;;;;;;;0.50;0.50;;;;;;;14.79;81.19;97355.34;29395;202;63009;-62
2021/06/10 02:23:13;;;;;;;0.50;0.50;;;;;;;14.78;81.05;97354.56;29395;313;63004;-63
2021/06/10 02:23:47;;;;;;;0.50;0.50;;;;;;;14.79;81.64;97358.91;29395;196;63008;-70
2021/06/10 02:24:19;;;;;;;0.50;0.50;;;;;;;14.79;81.12;97360.81;29395;256;63005;-62
2021/06/10 02:24:52;;;;;;;0.50;0.50;;;;;;;14.78;81.30;97356.47;29395;240;63009;-62
2021/06/10 02:25:23;;;;;;;0.50;0.50;;;;;;;14.78;81.20;97353.75;29395;200;63017;-63
2021/06/10 02:25:55;;;;;;;0.50;0.50;;;;;;;14.78;81.51;97359.19;29395;261;63009;-63
2021/06/10 02:26:26;;;;;;;0.50;0.50;;;;;;;14.78;81.51;97353.75;29394;216;64005;-62
2021/06/10 02:26:58;;;;;;;0.50;0.50;;;;;;;14.76;81.29;97354.03;29394;203;64009;-62
2021/06/10 02:27:30;;;;;;;0.50;0.50;;;;;;;14.77;81.35;97357.59;29395;284;63005;-63
2021/06/10 02:28:02;;;;;;;0.50;0.50;;;;;;;14.75;81.48;97350.50;29395;208;63009;-62
2021/06/10 02:28:34;;;;;;;0.50;0.50;;;;;;;14.74;81.26;97351.63;29395;222;63004;-62
2021/06/10 02:29:06;;;;;;;0.50;0.50;;;;;;;14.77;81.37;97360.31;29395;282;63009;-63
2021/06/10 02:29:38;;;;;;;0.50;0.50;;;;;;;14.77;81.31;97357.59;29395;212;63004;-63
2021/06/10 02:30:12;;;;;;;0.50;0.50;;;;;;;14.77;81.30;97361.13;29395;225;63009;-63
2021/06/10 02:30:43;;;;;;;0.50;0.50;;;;;;;14.77;81.31;97352.94;29394;223;64004;-70
2021/06/10 02:31:15;;;;;;;0.50;0.50;;;;;;;14.75;81.14;97350.50;29395;249;63008;-62
2021/06/10 02:31:46;;;;;;;0.50;0.50;;;;;;;14.74;81.32;97354.34;29394;197;64005;-63
2021/06/10 02:32:18;;;;;;;0.50;0.50;;;;;;;14.74;81.21;97354.34;29395;257;63009;-62
2021/06/10 02:32:50;;;;;;;0.50;0.50;;;;;;;14.74;81.15;97353.53;29395;287;63010;-62
2021/06/10 02:33:21;;;;;;;0.50;0.50;;;;;;;14.74;81.35;97353.53;29395;361;63009;-62
2021/06/10 02:33:53;;;;;;;0.50;0.50;;;;;;;14.74;81.17;97365.28;29395;207;63005;-62
2021/06/10 02:34:24;;;;;;;0.50;0.50;;;;;;;14.73;81.32;97354.66;29395;308;63009;-63
2021/06/10 02:34:55;;;;;;;0.50;0.50;;;;;;;14.74;81.32;97359.00;29395;213;63005;-68
2021/06/10 02:35:27;;;;;;;0.50;0.50;;;;;;;14.74;81.41;97357.09;29395;208;63009;-62
2021/06/10 02:35:59;;;;;;;0.50;0.50;;;;;;;14.73;81.30;97358.19;29395;203;63000;-62
2021/06/10 02:36:30;;;;;;;0.50;0.50;;;;;;;14.72;81.50;97362.06;29395;316;63009;-62
2021/06/10 02:37:04;;;;;;;0.50;0.50;;;;;;;14.73;81.16;97355.47;29394;212;63992;-62
2021/06/10 02:37:41;;;;;;;0.50;0.50;;;;;;;14.72;81.16;97351.13;29395;365;63009;-61
2021/06/10 02:38:13;;;;;;;0.50;0.50;;;;;;;14.72;81.10;97351.13;29395;253;63004;-61
2021/06/10 02:38:51;;;;;;;0.50;0.50;;;;;;;14.72;81.29;97353.03;29395;282;63008;-63
2021/06/10 02:39:23;;;;;;;0.50;0.50;;;;;;;14.71;81.00;97354.16;29395;249;63005;-63
2021/06/10 02:39:56;;;;;;;0.50;0.50;;;;;;;14.71;81.38;97354.16;29395;251;63009;-62
2021/06/10 02:40:32;;;;;;;0.50;0.50;;;;;;;14.70;81.49;97347.87;29395;234;63005;-63
2021/06/10 02:41:04;;;;;;;0.50;0.50;;;;;;;14.70;81.45;97349.81;29395;198;63009;-63
2021/06/10 02:41:39;;;;;;;0.50;0.50;;;;;;;14.69;81.23;97351.75;29395;247;63005;-62
2021/06/10 02:42:12;;;;;;;0.50;0.50;;;;;;;14.70;81.20;97352.53;29394;313;64009;-62
2021/06/10 02:42:45;;;;;;;0.50;0.50;;;;;;;14.71;81.19;97354.16;29395;199;63005;-63
2021/06/10 02:43:18;;;;;;;0.50;0.50;;;;;;;14.70;81.43;97353.34;29395;206;63009;-62